sensor_id;sensor_type;location;lat;lon;timestamp;P1;durP1;ratioP1;P2;durP2;ratioP2
3939;SDS011;1984;48.312;9.244;2022-12-24T00:01:07;1.87;;;1.10;;
3939;SDS011;1984;48.312;9.244;2022-12-24T00:03:33;3.80;;;1.10;;
3939;SDS011;1984;48.312;9.244;2022-12-24T00:06:07;1.00;;;0.70;;
3939;SDS011;1984;48.312;9.244;2022-12-24T00:08:34;1.07;;;0.97;;
3939;SDS011;1984;48.312;9.244;2022-12-24T00:11:00;8.67;;;0.97;;
3939;SDS011;1984;48.312;9.244;2022-12-24T00:13:26;1.93;;;0.90;;
3939;SDS011;1984;48.312;9.244;2022-12-24T00:15:51;0.87;;;0.87;;
3939;SDS011;1984;48.312;9.244;2022-12-24T00:18:17;1.53;;;1.00;;
3939;SDS011;1984;48.312;9.244;2022-12-24T00:20:46;5.80;;;1.00;;
3939;SDS011;1984;48.312;9.244;2022-12-24T00:23:12;1.47;;;0.80;;
3939;SDS011;1984;48.312;9.244;2022-12-24T00:25:38;1.43;;;1.10;;
3939;SDS011;1984;48.312;9.244;2022-12-24T00:28:04;7.87;;;1.63;;
3939;SDS011;1984;48.312;9.244;2022-12-24T00:30:29;5.53;;;1.80;;
3939;SDS011;1984;48.312;9.244;2022-12-24T00:32:55;3.47;;;1.30;;
3939;SDS011;1984;48.312;9.244;2022-12-24T00:35:20;4.20;;;1.40;;
3939;SDS011;1984;48.312;9.244;2022-12-24T00:37:46;2.90;;;1.33;;
3939;SDS011;1984;48.312;9.244;2022-12-24T00:40:13;0.80;;;0.80;;
3939;SDS011;1984;48.312;9.244;2022-12-24T00:42:39;9.13;;;1.43;;
3939;SDS011;1984;48.312;9.244;2022-12-24T00:45:05;4.63;;;1.43;;
3939;SDS011;1984;48.312;9.244;2022-12-24T00:47:30;1.37;;;1.03;;
3939;SDS011;1984;48.312;9.244;2022-12-24T00:49:56;2.57;;;1.20;;
3939;SDS011;1984;48.312;9.244;2022-12-24T00:52:21;1.80;;;1.13;;
3939;SDS011;1984;48.312;9.244;2022-12-24T00:54:47;5.73;;;1.00;;
3939;SDS011;1984;48.312;9.244;2022-12-24T00:57:12;2.23;;;1.10;;
3939;SDS011;1984;48.312;9.244;2022-12-24T00:59:38;4.20;;;1.10;;
3939;SDS011;1984;48.312;9.244;2022-12-24T01:02:03;1.90;;;0.70;;
3939;SDS011;1984;48.312;9.244;2022-12-24T01:04:29;1.03;;;1.00;;
3939;SDS011;1984;48.312;9.244;2022-12-24T01:07:13;2.10;;;1.10;;
3939;SDS011;1984;48.312;9.244;2022-12-24T01:09:38;3.77;;;1.13;;
3939;SDS011;1984;48.312;9.244;2022-12-24T01:12:04;2.40;;;1.30;;
3939;SDS011;1984;48.312;9.244;2022-12-24T01:14:29;5.43;;;1.87;;
3939;SDS011;1984;48.312;9.244;2022-12-24T01:16:55;1.70;;;1.20;;
3939;SDS011;1984;48.312;9.244;2022-12-24T01:19:20;3.37;;;1.50;;
3939;SDS011;1984;48.312;9.244;2022-12-24T01:21:46;1.90;;;1.23;;
3939;SDS011;1984;48.312;9.244;2022-12-24T01:24:15;3.20;;;1.53;;
3939;SDS011;1984;48.312;9.244;2022-12-24T01:26:41;2.33;;;0.90;;
3939;SDS011;1984;48.312;9.244;2022-12-24T01:29:07;1.03;;;0.90;;
3939;SDS011;1984;48.312;9.244;2022-12-24T01:31:33;2.43;;;1.10;;
3939;SDS011;1984;48.312;9.244;2022-12-24T01:33:58;2.73;;;0.80;;
3939;SDS011;1984;48.312;9.244;2022-12-24T01:36:24;2.20;;;0.90;;
3939;SDS011;1984;48.312;9.244;2022-12-24T01:38:50;1.90;;;0.90;;
3939;SDS011;1984;48.312;9.244;2022-12-24T01:41:19;7.40;;;1.47;;
3939;SDS011;1984;48.312;9.244;2022-12-24T01:46:47;1.23;;;0.80;;
3939;SDS011;1984;48.312;9.244;2022-12-24T01:49:15;1.17;;;0.90;;
3939;SDS011;1984;48.312;9.244;2022-12-24T01:51:46;3.70;;;1.33;;
3939;SDS011;1984;48.312;9.244;2022-12-24T01:54:27;2.10;;;1.00;;
3939;SDS011;1984;48.312;9.244;2022-12-24T01:57:29;5.53;;;1.30;;
3939;SDS011;1984;48.312;9.244;2022-12-24T02:00:01;2.67;;;1.50;;
3939;SDS011;1984;48.312;9.244;2022-12-24T02:02:29;2.70;;;1.30;;
3939;SDS011;1984;48.312;9.244;2022-12-24T02:05:01;2.50;;;1.70;;
3939;SDS011;1984;48.312;9.244;2022-12-24T02:07:31;3.37;;;1.83;;
3939;SDS011;1984;48.312;9.244;2022-12-24T02:09:57;2.93;;;2.20;;
3939;SDS011;1984;48.312;9.244;2022-12-24T02:12:25;6.13;;;2.80;;
3939;SDS011;1984;48.312;9.244;2022-12-24T02:14:52;4.47;;;2.50;;
3939;SDS011;1984;48.312;9.244;2022-12-24T02:20:07;4.10;;;3.03;;
3939;SDS011;1984;48.312;9.244;2022-12-24T02:31:43;3.77;;;2.37;;
3939;SDS011;1984;48.312;9.244;2022-12-24T02:34:17;10.87;;;3.67;;
3939;SDS011;1984;48.312;9.244;2022-12-24T02:39:48;9.93;;;4.57;;
3939;SDS011;1984;48.312;9.244;2022-12-24T02:42:22;6.30;;;3.50;;
3939;SDS011;1984;48.312;9.244;2022-12-24T02:44:52;9.40;;;3.77;;
3939;SDS011;1984;48.312;9.244;2022-12-24T02:47:21;9.73;;;4.37;;
3939;SDS011;1984;48.312;9.244;2022-12-24T02:49:50;8.00;;;3.77;;
3939;SDS011;1984;48.312;9.244;2022-12-24T02:55:04;9.63;;;3.40;;
3939;SDS011;1984;48.312;9.244;2022-12-24T02:57:41;8.83;;;2.87;;
3939;SDS011;1984;48.312;9.244;2022-12-24T03:00:18;8.00;;;3.10;;
3939;SDS011;1984;48.312;9.244;2022-12-24T03:05:50;4.43;;;2.63;;
3939;SDS011;1984;48.312;9.244;2022-12-24T03:11:37;11.97;;;4.40;;
3939;SDS011;1984;48.312;9.244;2022-12-24T03:14:09;5.03;;;2.70;;
3939;SDS011;1984;48.312;9.244;2022-12-24T03:16:36;2.53;;;1.93;;
3939;SDS011;1984;48.312;9.244;2022-12-24T03:19:02;4.30;;;1.90;;
3939;SDS011;1984;48.312;9.244;2022-12-24T03:21:28;2.37;;;1.40;;
3939;SDS011;1984;48.312;9.244;2022-12-24T03:23:57;1.73;;;1.50;;
3939;SDS011;1984;48.312;9.244;2022-12-24T03:26:23;1.10;;;1.10;;
3939;SDS011;1984;48.312;9.244;2022-12-24T03:28:50;4.00;;;1.80;;
3939;SDS011;1984;48.312;9.244;2022-12-24T03:31:16;3.17;;;1.10;;
3939;SDS011;1984;48.312;9.244;2022-12-24T03:33:42;2.67;;;1.20;;
3939;SDS011;1984;48.312;9.244;2022-12-24T03:36:09;3.53;;;1.10;;
3939;SDS011;1984;48.312;9.244;2022-12-24T03:38:35;1.53;;;1.17;;
3939;SDS011;1984;48.312;9.244;2022-12-24T03:41:01;0.97;;;0.87;;
3939;SDS011;1984;48.312;9.244;2022-12-24T03:43:26;2.13;;;0.97;;
3939;SDS011;1984;48.312;9.244;2022-12-24T03:45:52;2.20;;;1.17;;
3939;SDS011;1984;48.312;9.244;2022-12-24T03:48:18;1.27;;;0.87;;
3939;SDS011;1984;48.312;9.244;2022-12-24T03:50:43;1.43;;;1.33;;
3939;SDS011;1984;48.312;9.244;2022-12-24T03:53:09;1.03;;;0.73;;
3939;SDS011;1984;48.312;9.244;2022-12-24T03:55:34;5.10;;;1.13;;
3939;SDS011;1984;48.312;9.244;2022-12-24T03:58:00;2.40;;;1.17;;
3939;SDS011;1984;48.312;9.244;2022-12-24T04:00:25;2.23;;;0.97;;
3939;SDS011;1984;48.312;9.244;2022-12-24T04:02:52;4.20;;;1.00;;
3939;SDS011;1984;48.312;9.244;2022-12-24T04:05:18;4.93;;;1.30;;
3939;SDS011;1984;48.312;9.244;2022-12-24T04:07:44;0.70;;;0.70;;
3939;SDS011;1984;48.312;9.244;2022-12-24T04:10:11;8.27;;;1.40;;
3939;SDS011;1984;48.312;9.244;2022-12-24T04:12:38;1.43;;;1.13;;
3939;SDS011;1984;48.312;9.244;2022-12-24T04:15:03;3.40;;;0.90;;
3939;SDS011;1984;48.312;9.244;2022-12-24T04:17:30;4.43;;;1.10;;
3939;SDS011;1984;48.312;9.244;2022-12-24T04:19:56;2.47;;;1.77;;
3939;SDS011;1984;48.312;9.244;2022-12-24T04:22:21;2.83;;;2.10;;
3939;SDS011;1984;48.312;9.244;2022-12-24T04:24:47;3.80;;;2.33;;
3939;SDS011;1984;48.312;9.244;2022-12-24T04:27:13;8.83;;;2.30;;
3939;SDS011;1984;48.312;9.244;2022-12-24T04:29:39;4.70;;;2.50;;
3939;SDS011;1984;48.312;9.244;2022-12-24T04:32:04;3.37;;;2.87;;
3939;SDS011;1984;48.312;9.244;2022-12-24T04:34:30;4.20;;;3.50;;
3939;SDS011;1984;48.312;9.244;2022-12-24T04:36:55;3.70;;;3.27;;
3939;SDS011;1984;48.312;9.244;2022-12-24T04:39:21;38.67;;;11.97;;
3939;SDS011;1984;48.312;9.244;2022-12-24T04:41:46;45.67;;;17.93;;
3939;SDS011;1984;48.312;9.244;2022-12-24T04:44:12;22.27;;;9.87;;
3939;SDS011;1984;48.312;9.244;2022-12-24T04:46:38;10.63;;;3.63;;
3939;SDS011;1984;48.312;9.244;2022-12-24T04:49:04;13.20;;;5.37;;
3939;SDS011;1984;48.312;9.244;2022-12-24T04:51:30;19.73;;;7.93;;
3939;SDS011;1984;48.312;9.244;2022-12-24T04:53:56;9.20;;;3.80;;
3939;SDS011;1984;48.312;9.244;2022-12-24T04:56:23;5.60;;;2.83;;
3939;SDS011;1984;48.312;9.244;2022-12-24T04:58:50;4.70;;;2.97;;
3939;SDS011;1984;48.312;9.244;2022-12-24T05:01:18;5.57;;;3.23;;
3939;SDS011;1984;48.312;9.244;2022-12-24T05:03:45;6.20;;;4.33;;
3939;SDS011;1984;48.312;9.244;2022-12-24T05:06:12;3.60;;;2.70;;
3939;SDS011;1984;48.312;9.244;2022-12-24T05:08:40;2.70;;;2.17;;
3939;SDS011;1984;48.312;9.244;2022-12-24T05:11:06;7.17;;;2.40;;
3939;SDS011;1984;48.312;9.244;2022-12-24T05:13:32;2.37;;;1.50;;
3939;SDS011;1984;48.312;9.244;2022-12-24T05:15:57;2.40;;;1.90;;
3939;SDS011;1984;48.312;9.244;2022-12-24T05:18:23;5.93;;;1.33;;
3939;SDS011;1984;48.312;9.244;2022-12-24T05:20:49;5.27;;;1.50;;
3939;SDS011;1984;48.312;9.244;2022-12-24T05:23:16;3.17;;;2.23;;
3939;SDS011;1984;48.312;9.244;2022-12-24T05:26:02;11.53;;;2.70;;
3939;SDS011;1984;48.312;9.244;2022-12-24T05:28:46;6.10;;;2.47;;
3939;SDS011;1984;48.312;9.244;2022-12-24T05:31:18;2.33;;;2.00;;
3939;SDS011;1984;48.312;9.244;2022-12-24T05:33:45;3.50;;;1.90;;
3939;SDS011;1984;48.312;9.244;2022-12-24T05:36:11;2.30;;;2.10;;
3939;SDS011;1984;48.312;9.244;2022-12-24T05:38:37;5.50;;;2.67;;
3939;SDS011;1984;48.312;9.244;2022-12-24T05:41:03;6.00;;;2.10;;
3939;SDS011;1984;48.312;9.244;2022-12-24T05:43:29;6.77;;;2.40;;
3939;SDS011;1984;48.312;9.244;2022-12-24T05:46:01;2.37;;;2.00;;
3939;SDS011;1984;48.312;9.244;2022-12-24T05:48:28;2.10;;;1.30;;
3939;SDS011;1984;48.312;9.244;2022-12-24T05:50:54;8.10;;;2.00;;
3939;SDS011;1984;48.312;9.244;2022-12-24T05:53:20;6.93;;;1.50;;
3939;SDS011;1984;48.312;9.244;2022-12-24T05:55:46;4.67;;;1.60;;
3939;SDS011;1984;48.312;9.244;2022-12-24T05:58:12;7.33;;;1.53;;
3939;SDS011;1984;48.312;9.244;2022-12-24T06:00:38;5.27;;;1.73;;
3939;SDS011;1984;48.312;9.244;2022-12-24T06:03:04;6.40;;;1.80;;
3939;SDS011;1984;48.312;9.244;2022-12-24T06:05:29;7.73;;;1.33;;
3939;SDS011;1984;48.312;9.244;2022-12-24T06:07:55;1.63;;;1.13;;
3939;SDS011;1984;48.312;9.244;2022-12-24T06:10:21;9.00;;;1.20;;
3939;SDS011;1984;48.312;9.244;2022-12-24T06:12:46;5.23;;;1.43;;
3939;SDS011;1984;48.312;9.244;2022-12-24T06:15:12;5.03;;;1.80;;
3939;SDS011;1984;48.312;9.244;2022-12-24T06:17:37;3.70;;;1.30;;
3939;SDS011;1984;48.312;9.244;2022-12-24T06:20:03;5.30;;;1.10;;
3939;SDS011;1984;48.312;9.244;2022-12-24T06:22:29;2.90;;;1.30;;
3939;SDS011;1984;48.312;9.244;2022-12-24T06:24:54;7.67;;;1.80;;
3939;SDS011;1984;48.312;9.244;2022-12-24T06:27:20;2.63;;;0.90;;
3939;SDS011;1984;48.312;9.244;2022-12-24T06:29:45;8.87;;;1.83;;
3939;SDS011;1984;48.312;9.244;2022-12-24T06:32:11;4.60;;;1.40;;
3939;SDS011;1984;48.312;9.244;2022-12-24T06:34:36;6.23;;;1.97;;
3939;SDS011;1984;48.312;9.244;2022-12-24T06:37:02;6.10;;;1.10;;
3939;SDS011;1984;48.312;9.244;2022-12-24T06:39:28;10.60;;;1.50;;
3939;SDS011;1984;48.312;9.244;2022-12-24T06:41:53;7.40;;;1.83;;
3939;SDS011;1984;48.312;9.244;2022-12-24T06:44:19;3.80;;;1.30;;
3939;SDS011;1984;48.312;9.244;2022-12-24T06:46:44;4.90;;;1.00;;
3939;SDS011;1984;48.312;9.244;2022-12-24T06:49:10;3.13;;;1.60;;
3939;SDS011;1984;48.312;9.244;2022-12-24T06:51:35;7.37;;;1.53;;
3939;SDS011;1984;48.312;9.244;2022-12-24T06:54:01;3.00;;;1.50;;
3939;SDS011;1984;48.312;9.244;2022-12-24T06:56:26;7.17;;;1.83;;
3939;SDS011;1984;48.312;9.244;2022-12-24T06:58:52;10.33;;;1.37;;
3939;SDS011;1984;48.312;9.244;2022-12-24T07:01:18;5.17;;;1.57;;
3939;SDS011;1984;48.312;9.244;2022-12-24T07:03:44;5.67;;;1.43;;
3939;SDS011;1984;48.312;9.244;2022-12-24T07:06:18;2.50;;;1.60;;
3939;SDS011;1984;48.312;9.244;2022-12-24T07:08:47;6.90;;;1.67;;
3939;SDS011;1984;48.312;9.244;2022-12-24T07:11:13;13.33;;;2.43;;
3939;SDS011;1984;48.312;9.244;2022-12-24T07:13:39;14.33;;;1.73;;
3939;SDS011;1984;48.312;9.244;2022-12-24T07:16:04;4.90;;;1.50;;
3939;SDS011;1984;48.312;9.244;2022-12-24T07:18:30;10.37;;;2.33;;
3939;SDS011;1984;48.312;9.244;2022-12-24T07:20:56;6.20;;;2.60;;
3939;SDS011;1984;48.312;9.244;2022-12-24T07:23:22;6.87;;;1.87;;
3939;SDS011;1984;48.312;9.244;2022-12-24T07:25:48;7.60;;;1.87;;
3939;SDS011;1984;48.312;9.244;2022-12-24T07:28:13;6.00;;;1.93;;
3939;SDS011;1984;48.312;9.244;2022-12-24T07:30:39;5.27;;;2.03;;
3939;SDS011;1984;48.312;9.244;2022-12-24T07:33:04;12.03;;;2.53;;
3939;SDS011;1984;48.312;9.244;2022-12-24T07:35:30;5.00;;;1.53;;
3939;SDS011;1984;48.312;9.244;2022-12-24T07:37:55;5.93;;;1.93;;
3939;SDS011;1984;48.312;9.244;2022-12-24T07:40:21;11.23;;;3.23;;
3939;SDS011;1984;48.312;9.244;2022-12-24T07:42:47;7.80;;;2.90;;
3939;SDS011;1984;48.312;9.244;2022-12-24T07:45:12;10.37;;;3.07;;
3939;SDS011;1984;48.312;9.244;2022-12-24T07:47:37;10.37;;;3.43;;
3939;SDS011;1984;48.312;9.244;2022-12-24T07:50:03;5.33;;;2.73;;
3939;SDS011;1984;48.312;9.244;2022-12-24T07:52:30;8.20;;;5.60;;
3939;SDS011;1984;48.312;9.244;2022-12-24T07:54:56;12.30;;;6.77;;
3939;SDS011;1984;48.312;9.244;2022-12-24T07:57:21;8.50;;;4.60;;
3939;SDS011;1984;48.312;9.244;2022-12-24T07:59:47;9.00;;;5.73;;
3939;SDS011;1984;48.312;9.244;2022-12-24T08:02:13;16.53;;;4.70;;
3939;SDS011;1984;48.312;9.244;2022-12-24T08:04:38;6.20;;;3.77;;
3939;SDS011;1984;48.312;9.244;2022-12-24T08:07:04;7.63;;;2.53;;
3939;SDS011;1984;48.312;9.244;2022-12-24T08:09:32;11.10;;;4.80;;
3939;SDS011;1984;48.312;9.244;2022-12-24T08:12:02;8.70;;;4.27;;
3939;SDS011;1984;48.312;9.244;2022-12-24T08:14:28;23.10;;;6.13;;
3939;SDS011;1984;48.312;9.244;2022-12-24T08:16:54;18.00;;;4.63;;
3939;SDS011;1984;48.312;9.244;2022-12-24T08:19:20;7.90;;;3.10;;
3939;SDS011;1984;48.312;9.244;2022-12-24T08:21:46;9.33;;;4.90;;
3939;SDS011;1984;48.312;9.244;2022-12-24T08:24:12;16.40;;;5.23;;
3939;SDS011;1984;48.312;9.244;2022-12-24T08:26:38;21.63;;;7.80;;
3939;SDS011;1984;48.312;9.244;2022-12-24T08:29:04;18.60;;;10.10;;
3939;SDS011;1984;48.312;9.244;2022-12-24T08:31:29;19.60;;;9.83;;
3939;SDS011;1984;48.312;9.244;2022-12-24T08:34:00;22.70;;;9.13;;
3939;SDS011;1984;48.312;9.244;2022-12-24T08:36:29;21.00;;;7.73;;
3939;SDS011;1984;48.312;9.244;2022-12-24T08:38:55;17.50;;;8.27;;
3939;SDS011;1984;48.312;9.244;2022-12-24T08:41:20;21.50;;;8.47;;
3939;SDS011;1984;48.312;9.244;2022-12-24T08:43:46;15.40;;;7.17;;
3939;SDS011;1984;48.312;9.244;2022-12-24T08:46:11;20.20;;;8.07;;
3939;SDS011;1984;48.312;9.244;2022-12-24T08:48:37;28.13;;;7.57;;
3939;SDS011;1984;48.312;9.244;2022-12-24T08:51:07;11.93;;;6.07;;
3939;SDS011;1984;48.312;9.244;2022-12-24T08:53:33;15.43;;;6.60;;
3939;SDS011;1984;48.312;9.244;2022-12-24T08:56:02;9.00;;;3.80;;
3939;SDS011;1984;48.312;9.244;2022-12-24T08:58:30;9.90;;;3.97;;
3939;SDS011;1984;48.312;9.244;2022-12-24T09:00:56;5.80;;;3.00;;
3939;SDS011;1984;48.312;9.244;2022-12-24T09:03:22;6.33;;;1.90;;
3939;SDS011;1984;48.312;9.244;2022-12-24T09:05:47;10.30;;;2.93;;
3939;SDS011;1984;48.312;9.244;2022-12-24T09:08:13;5.17;;;2.23;;
3939;SDS011;1984;48.312;9.244;2022-12-24T09:10:38;6.83;;;2.07;;
3939;SDS011;1984;48.312;9.244;2022-12-24T09:13:04;4.20;;;1.70;;
3939;SDS011;1984;48.312;9.244;2022-12-24T09:15:30;5.87;;;2.37;;
3939;SDS011;1984;48.312;9.244;2022-12-24T09:17:55;8.00;;;1.90;;
3939;SDS011;1984;48.312;9.244;2022-12-24T09:20:21;7.67;;;2.80;;
3939;SDS011;1984;48.312;9.244;2022-12-24T09:22:46;6.23;;;3.50;;
3939;SDS011;1984;48.312;9.244;2022-12-24T09:25:12;3.30;;;2.63;;
3939;SDS011;1984;48.312;9.244;2022-12-24T09:27:38;3.27;;;2.10;;
3939;SDS011;1984;48.312;9.244;2022-12-24T09:30:04;3.50;;;1.73;;
3939;SDS011;1984;48.312;9.244;2022-12-24T09:32:30;8.60;;;2.63;;
3939;SDS011;1984;48.312;9.244;2022-12-24T09:34:56;8.47;;;1.80;;
3939;SDS011;1984;48.312;9.244;2022-12-24T09:37:22;10.60;;;2.00;;
3939;SDS011;1984;48.312;9.244;2022-12-24T09:39:47;5.27;;;1.90;;
3939;SDS011;1984;48.312;9.244;2022-12-24T09:42:19;6.47;;;2.30;;
3939;SDS011;1984;48.312;9.244;2022-12-24T09:47:41;5.00;;;2.60;;
3939;SDS011;1984;48.312;9.244;2022-12-24T09:53:15;9.70;;;2.17;;
3939;SDS011;1984;48.312;9.244;2022-12-24T09:55:47;10.50;;;1.67;;
3939;SDS011;1984;48.312;9.244;2022-12-24T09:58:20;6.57;;;2.10;;
3939;SDS011;1984;48.312;9.244;2022-12-24T10:00:50;8.37;;;2.63;;
3939;SDS011;1984;48.312;9.244;2022-12-24T10:03:17;12.13;;;3.40;;
3939;SDS011;1984;48.312;9.244;2022-12-24T10:11:25;8.97;;;3.80;;
3939;SDS011;1984;48.312;9.244;2022-12-24T10:14:01;6.00;;;2.90;;
3939;SDS011;1984;48.312;9.244;2022-12-24T10:16:34;8.07;;;2.70;;
3939;SDS011;1984;48.312;9.244;2022-12-24T10:19:04;9.77;;;3.10;;
3939;SDS011;1984;48.312;9.244;2022-12-24T10:24:36;4.77;;;2.40;;
3939;SDS011;1984;48.312;9.244;2022-12-24T10:27:11;9.00;;;2.90;;
3939;SDS011;1984;48.312;9.244;2022-12-24T10:30:00;7.70;;;2.17;;
3939;SDS011;1984;48.312;9.244;2022-12-24T10:32:29;5.73;;;2.33;;
3939;SDS011;1984;48.312;9.244;2022-12-24T10:34:58;5.57;;;2.13;;
3939;SDS011;1984;48.312;9.244;2022-12-24T10:37:40;9.63;;;3.30;;
3939;SDS011;1984;48.312;9.244;2022-12-24T10:40:11;12.80;;;4.50;;
3939;SDS011;1984;48.312;9.244;2022-12-24T10:43:06;6.97;;;3.10;;
3939;SDS011;1984;48.312;9.244;2022-12-24T10:45:43;8.13;;;2.63;;
3939;SDS011;1984;48.312;9.244;2022-12-24T10:48:40;6.50;;;2.37;;
3939;SDS011;1984;48.312;9.244;2022-12-24T10:51:13;14.77;;;3.10;;
3939;SDS011;1984;48.312;9.244;2022-12-24T10:53:53;10.63;;;2.30;;
3939;SDS011;1984;48.312;9.244;2022-12-24T10:56:24;11.13;;;1.83;;
3939;SDS011;1984;48.312;9.244;2022-12-24T10:58:51;7.23;;;3.40;;
3939;SDS011;1984;48.312;9.244;2022-12-24T11:01:19;14.30;;;2.63;;
3939;SDS011;1984;48.312;9.244;2022-12-24T11:04:05;3.07;;;1.63;;
3939;SDS011;1984;48.312;9.244;2022-12-24T11:06:31;7.70;;;2.30;;
3939;SDS011;1984;48.312;9.244;2022-12-24T11:08:56;5.53;;;2.30;;
3939;SDS011;1984;48.312;9.244;2022-12-24T11:11:42;5.47;;;1.63;;
3939;SDS011;1984;48.312;9.244;2022-12-24T11:14:10;9.50;;;2.40;;
3939;SDS011;1984;48.312;9.244;2022-12-24T11:16:39;5.80;;;2.13;;
3939;SDS011;1984;48.312;9.244;2022-12-24T11:19:17;8.60;;;2.17;;
3939;SDS011;1984;48.312;9.244;2022-12-24T11:21:48;6.23;;;1.50;;
3939;SDS011;1984;48.312;9.244;2022-12-24T11:24:25;21.93;;;3.10;;
3939;SDS011;1984;48.312;9.244;2022-12-24T11:26:54;9.47;;;2.20;;
3939;SDS011;1984;48.312;9.244;2022-12-24T11:32:44;6.37;;;2.23;;
3939;SDS011;1984;48.312;9.244;2022-12-24T11:37:48;5.00;;;2.70;;
3939;SDS011;1984;48.312;9.244;2022-12-24T11:40:42;7.60;;;2.50;;
3939;SDS011;1984;48.312;9.244;2022-12-24T11:43:19;10.70;;;2.17;;
3939;SDS011;1984;48.312;9.244;2022-12-24T11:45:53;10.33;;;2.17;;
3939;SDS011;1984;48.312;9.244;2022-12-24T11:48:33;8.90;;;2.60;;
3939;SDS011;1984;48.312;9.244;2022-12-24T11:51:03;4.97;;;2.47;;
3939;SDS011;1984;48.312;9.244;2022-12-24T11:53:42;9.10;;;2.40;;
3939;SDS011;1984;48.312;9.244;2022-12-24T11:56:14;8.40;;;2.67;;
3939;SDS011;1984;48.312;9.244;2022-12-24T11:58:55;5.90;;;3.00;;
3939;SDS011;1984;48.312;9.244;2022-12-24T12:01:24;16.53;;;2.77;;
3939;SDS011;1984;48.312;9.244;2022-12-24T12:04:10;5.97;;;2.23;;
3939;SDS011;1984;48.312;9.244;2022-12-24T12:06:49;7.90;;;2.60;;
3939;SDS011;1984;48.312;9.244;2022-12-24T12:09:23;13.63;;;2.90;;
3939;SDS011;1984;48.312;9.244;2022-12-24T12:11:57;7.47;;;2.30;;
3939;SDS011;1984;48.312;9.244;2022-12-24T12:14:40;6.40;;;2.47;;
3939;SDS011;1984;48.312;9.244;2022-12-24T12:17:13;3.63;;;1.80;;
3939;SDS011;1984;48.312;9.244;2022-12-24T12:22:59;9.53;;;1.97;;
3939;SDS011;1984;48.312;9.244;2022-12-24T12:25:57;13.67;;;2.10;;
3939;SDS011;1984;48.312;9.244;2022-12-24T12:28:44;9.63;;;2.77;;
3939;SDS011;1984;48.312;9.244;2022-12-24T12:33:46;12.67;;;3.93;;
3939;SDS011;1984;48.312;9.244;2022-12-24T12:36:30;13.97;;;4.37;;
3939;SDS011;1984;48.312;9.244;2022-12-24T12:39:00;7.57;;;3.50;;
3939;SDS011;1984;48.312;9.244;2022-12-24T12:41:28;13.80;;;4.20;;
3939;SDS011;1984;48.312;9.244;2022-12-24T12:44:48;10.03;;;3.50;;
3939;SDS011;1984;48.312;9.244;2022-12-24T12:47:26;7.83;;;2.50;;
3939;SDS011;1984;48.312;9.244;2022-12-24T12:55:47;5.87;;;2.73;;
3939;SDS011;1984;48.312;9.244;2022-12-24T12:58:40;6.20;;;2.57;;
3939;SDS011;1984;48.312;9.244;2022-12-24T13:01:14;9.90;;;2.77;;
3939;SDS011;1984;48.312;9.244;2022-12-24T13:15:48;7.33;;;3.20;;
3939;SDS011;1984;48.312;9.244;2022-12-24T13:21:20;6.30;;;2.70;;
3939;SDS011;1984;48.312;9.244;2022-12-24T13:23:49;6.30;;;2.43;;
3939;SDS011;1984;48.312;9.244;2022-12-24T13:26:15;4.50;;;2.40;;
3939;SDS011;1984;48.312;9.244;2022-12-24T13:28:41;8.00;;;2.30;;
3939;SDS011;1984;48.312;9.244;2022-12-24T13:36:02;10.73;;;3.10;;
3939;SDS011;1984;48.312;9.244;2022-12-24T13:44:03;6.07;;;3.10;;
3939;SDS011;1984;48.312;9.244;2022-12-24T13:54:44;6.10;;;2.30;;
3939;SDS011;1984;48.312;9.244;2022-12-24T13:57:34;8.53;;;2.90;;
3939;SDS011;1984;48.312;9.244;2022-12-24T14:07:59;5.07;;;2.43;;
3939;SDS011;1984;48.312;9.244;2022-12-24T14:10:29;6.40;;;2.47;;
3939;SDS011;1984;48.312;9.244;2022-12-24T14:12:58;4.17;;;2.60;;
3939;SDS011;1984;48.312;9.244;2022-12-24T14:18:17;7.10;;;2.43;;
3939;SDS011;1984;48.312;9.244;2022-12-24T14:20:52;2.93;;;2.53;;
3939;SDS011;1984;48.312;9.244;2022-12-24T14:23:35;8.50;;;3.07;;
3939;SDS011;1984;48.312;9.244;2022-12-24T14:26:35;10.17;;;2.43;;
3939;SDS011;1984;48.312;9.244;2022-12-24T14:29:17;3.97;;;2.30;;
3939;SDS011;1984;48.312;9.244;2022-12-24T14:31:51;12.03;;;2.37;;
3939;SDS011;1984;48.312;9.244;2022-12-24T14:34:21;5.33;;;1.80;;
3939;SDS011;1984;48.312;9.244;2022-12-24T14:36:47;3.27;;;2.30;;
3939;SDS011;1984;48.312;9.244;2022-12-24T14:39:19;5.57;;;2.63;;
3939;SDS011;1984;48.312;9.244;2022-12-24T14:41:51;4.90;;;2.13;;
3939;SDS011;1984;48.312;9.244;2022-12-24T14:47:06;5.57;;;2.97;;
3939;SDS011;1984;48.312;9.244;2022-12-24T14:49:44;12.10;;;5.30;;
3939;SDS011;1984;48.312;9.244;2022-12-24T14:52:33;5.60;;;2.00;;
3939;SDS011;1984;48.312;9.244;2022-12-24T14:55:26;8.10;;;2.83;;
3939;SDS011;1984;48.312;9.244;2022-12-24T15:00:58;5.77;;;3.20;;
3939;SDS011;1984;48.312;9.244;2022-12-24T15:03:27;4.63;;;3.00;;
3939;SDS011;1984;48.312;9.244;2022-12-24T15:05:56;9.00;;;3.70;;
3939;SDS011;1984;48.312;9.244;2022-12-24T15:08:46;13.80;;;6.40;;
3939;SDS011;1984;48.312;9.244;2022-12-24T15:11:13;7.97;;;3.00;;
3939;SDS011;1984;48.312;9.244;2022-12-24T15:13:44;8.07;;;4.07;;
3939;SDS011;1984;48.312;9.244;2022-12-24T15:16:17;15.20;;;5.53;;
3939;SDS011;1984;48.312;9.244;2022-12-24T15:18:51;12.30;;;5.90;;
3939;SDS011;1984;48.312;9.244;2022-12-24T15:21:26;9.90;;;3.33;;
3939;SDS011;1984;48.312;9.244;2022-12-24T15:23:57;4.87;;;3.00;;
3939;SDS011;1984;48.312;9.244;2022-12-24T15:26:27;13.30;;;4.80;;
3939;SDS011;1984;48.312;9.244;2022-12-24T15:28:56;10.03;;;4.90;;
3939;SDS011;1984;48.312;9.244;2022-12-24T15:31:23;8.70;;;4.00;;
3939;SDS011;1984;48.312;9.244;2022-12-24T15:33:51;3.83;;;2.50;;
3939;SDS011;1984;48.312;9.244;2022-12-24T15:36:23;6.63;;;3.30;;
3939;SDS011;1984;48.312;9.244;2022-12-24T15:38:55;16.33;;;4.43;;
3939;SDS011;1984;48.312;9.244;2022-12-24T15:41:26;8.87;;;3.60;;
3939;SDS011;1984;48.312;9.244;2022-12-24T15:43:58;6.17;;;2.63;;
3939;SDS011;1984;48.312;9.244;2022-12-24T15:46:26;4.60;;;3.10;;
3939;SDS011;1984;48.312;9.244;2022-12-24T15:48:54;19.17;;;3.20;;
3939;SDS011;1984;48.312;9.244;2022-12-24T15:51:29;7.53;;;2.80;;
3939;SDS011;1984;48.312;9.244;2022-12-24T15:54:00;9.83;;;3.37;;
3939;SDS011;1984;48.312;9.244;2022-12-24T15:56:30;8.10;;;2.70;;
3939;SDS011;1984;48.312;9.244;2022-12-24T16:05:16;8.70;;;4.77;;
3939;SDS011;1984;48.312;9.244;2022-12-24T16:10:47;13.43;;;5.50;;
3939;SDS011;1984;48.312;9.244;2022-12-24T16:13:22;9.80;;;5.50;;
3939;SDS011;1984;48.312;9.244;2022-12-24T16:15:53;11.47;;;4.60;;
3939;SDS011;1984;48.312;9.244;2022-12-24T16:18:26;8.97;;;4.10;;
3939;SDS011;1984;48.312;9.244;2022-12-24T16:21:00;9.83;;;5.07;;
3939;SDS011;1984;48.312;9.244;2022-12-24T16:23:33;5.73;;;3.80;;
3939;SDS011;1984;48.312;9.244;2022-12-24T16:26:10;10.57;;;4.30;;
3939;SDS011;1984;48.312;9.244;2022-12-24T16:28:35;6.73;;;3.77;;
3939;SDS011;1984;48.312;9.244;2022-12-24T16:31:01;10.60;;;3.63;;
3939;SDS011;1984;48.312;9.244;2022-12-24T16:33:27;6.80;;;3.87;;
3939;SDS011;1984;48.312;9.244;2022-12-24T16:35:53;4.00;;;3.50;;
3939;SDS011;1984;48.312;9.244;2022-12-24T16:38:18;9.00;;;4.47;;
3939;SDS011;1984;48.312;9.244;2022-12-24T16:40:44;5.17;;;3.53;;
3939;SDS011;1984;48.312;9.244;2022-12-24T16:43:10;3.47;;;3.17;;
3939;SDS011;1984;48.312;9.244;2022-12-24T16:46:01;4.70;;;3.17;;
3939;SDS011;1984;48.312;9.244;2022-12-24T16:48:28;3.57;;;2.53;;
3939;SDS011;1984;48.312;9.244;2022-12-24T16:50:54;9.43;;;2.90;;
3939;SDS011;1984;48.312;9.244;2022-12-24T16:53:20;5.17;;;2.50;;
3939;SDS011;1984;48.312;9.244;2022-12-24T16:55:47;3.00;;;2.60;;
3939;SDS011;1984;48.312;9.244;2022-12-24T16:58:15;4.67;;;2.90;;
3939;SDS011;1984;48.312;9.244;2022-12-24T17:00:41;6.37;;;3.03;;
3939;SDS011;1984;48.312;9.244;2022-12-24T17:03:08;6.53;;;3.23;;
3939;SDS011;1984;48.312;9.244;2022-12-24T17:05:38;3.13;;;2.87;;
3939;SDS011;1984;48.312;9.244;2022-12-24T17:08:04;6.23;;;3.23;;
3939;SDS011;1984;48.312;9.244;2022-12-24T17:10:30;5.10;;;3.00;;
3939;SDS011;1984;48.312;9.244;2022-12-24T17:12:56;9.23;;;3.77;;
3939;SDS011;1984;48.312;9.244;2022-12-24T17:15:21;4.40;;;3.00;;
3939;SDS011;1984;48.312;9.244;2022-12-24T17:17:47;13.20;;;4.20;;
3939;SDS011;1984;48.312;9.244;2022-12-24T17:20:12;5.00;;;3.70;;
3939;SDS011;1984;48.312;9.244;2022-12-24T17:22:38;7.07;;;3.80;;
3939;SDS011;1984;48.312;9.244;2022-12-24T17:25:04;7.80;;;3.20;;